createdAt,value
2023-08-09T00:00:16.183Z,69.082740
2023-08-09T00:05:16.112Z,68.983517
2023-08-09T00:10:18.238Z,69.193819
2023-08-09T00:15:24.263Z,69.293174
2023-08-09T00:20:18.100Z,69.193819
2023-08-09T00:25:24.462Z,69.193819
2023-08-09T00:30:18.100Z,69.293174
2023-08-09T00:35:24.367Z,69.293174
2023-08-09T00:40:24.354Z,69.293174
2023-08-09T00:45:24.304Z,69.193819
2023-08-09T00:50:24.339Z,69.293174
2023-08-09T00:55:16.140Z,69.193819
2023-08-09T01:00:18.088Z,69.193819
2023-08-09T01:05:18.124Z,69.193819
2023-08-09T01:10:18.114Z,69.094463
2023-08-09T01:15:24.425Z,69.094463
2023-08-09T01:20:24.374Z,69.094463
2023-08-09T01:25:24.362Z,69.401022
2023-08-09T01:30:18.200Z,69.301535
2023-08-09T01:35:18.158Z,69.202048
2023-08-09T01:40:18.163Z,69.301535
2023-08-09T01:45:16.302Z,69.301535
2023-08-09T01:50:16.220Z,69.202048
2023-08-09T01:55:18.243Z,69.202048
2023-08-09T02:00:18.188Z,69.102562
2023-08-09T02:05:24.496Z,69.003075
2023-08-09T02:10:18.225Z,69.102562
2023-08-09T02:15:18.216Z,68.903588
2023-08-09T02:20:18.322Z,68.903588
2023-08-09T02:25:24.426Z,68.804100
2023-08-09T02:30:24.420Z,68.704613
2023-08-09T02:35:24.457Z,68.505638
2023-08-09T02:40:16.287Z,68.505638
2023-08-09T02:45:16.410Z,68.306663
2023-08-09T02:50:24.508Z,68.306663
2023-08-09T02:55:18.221Z,68.306663
2023-08-09T03:00:18.386Z,68.306663
2023-08-09T03:05:24.499Z,67.902187
2023-08-09T03:10:24.471Z,68.001544
2023-08-09T03:15:24.478Z,67.902187
2023-08-09T03:20:18.257Z,67.902187
2023-08-09T03:25:18.272Z,67.802830
2023-08-09T03:30:16.444Z,67.902187
2023-08-09T03:35:16.349Z,67.902187
2023-08-09T03:40:18.329Z,67.802830
2023-08-09T03:45:24.665Z,67.703472
2023-08-09T03:50:18.300Z,67.604115
2023-08-09T03:55:18.362Z,67.504757
2023-08-09T04:00:24.156Z,67.604115
2023-08-09T04:05:23.772Z,67.604115
2023-08-09T04:10:23.841Z,67.504757
2023-08-09T04:15:23.784Z,67.504757
2023-08-09T04:20:23.800Z,67.504757
2023-08-09T04:25:23.824Z,67.405399
2023-08-09T04:30:17.652Z,67.405399
2023-08-09T04:35:17.800Z,67.405399
2023-08-09T04:40:15.598Z,67.405399
2023-08-09T04:45:15.569Z,67.405399
2023-08-09T04:50:23.890Z,67.306041
2023-08-09T04:55:23.849Z,67.206683
2023-08-09T05:00:17.671Z,67.206683
2023-08-09T05:05:24.057Z,67.107325
2023-08-09T05:10:23.881Z,67.206683
2023-08-09T05:15:17.584Z,67.107325
2023-08-09T05:20:24.016Z,67.007967
2023-08-09T05:25:23.875Z,67.007967
2023-08-09T05:30:17.737Z,67.007967
2023-08-09T05:35:15.661Z,66.908608
2023-08-09T05:40:24.053Z,66.809250
2023-08-09T05:45:17.701Z,66.809250
2023-08-09T05:50:17.705Z,66.709891
2023-08-09T05:55:23.938Z,66.610532
2023-08-09T06:00:17.787Z,66.610532
2023-08-09T06:05:17.712Z,66.411814
2023-08-09T06:11:22.784Z,66.411814
2023-08-09T06:15:23.920Z,66.411814
2023-08-09T06:20:17.704Z,66.511173
2023-08-09T06:25:15.807Z,66.511173
2023-08-09T06:30:15.869Z,66.511173
2023-08-09T06:35:17.835Z,66.610532
2023-08-09T06:40:23.996Z,66.304435
2023-08-09T06:45:24.018Z,66.610532
2023-08-09T06:50:24.092Z,66.304435
2023-08-09T06:55:17.757Z,66.304435
2023-08-09T07:00:17.885Z,66.304435
2023-08-09T07:05:17.805Z,66.304435
2023-08-09T07:10:17.738Z,65.995476
2023-08-09T07:15:17.817Z,65.995476
2023-08-09T07:20:16.052Z,66.094571
2023-08-09T07:25:15.920Z,66.292760
2023-08-09T07:30:17.855Z,66.079439
2023-08-09T07:35:24.252Z,66.391854
2023-08-09T07:40:17.972Z,66.490948
2023-08-09T07:45:24.010Z,66.178399
2023-08-09T07:50:24.015Z,66.079439
2023-08-09T07:55:18.040Z,66.079439
2023-08-09T08:00:26.581Z,66.079439
2023-08-09T08:05:17.864Z,65.980478
2023-08-09T08:10:15.986Z,65.881518
2023-08-09T08:15:15.891Z,65.881518
2023-08-09T08:20:24.217Z,65.881518
2023-08-09T08:25:24.185Z,65.782557
2023-08-09T08:30:17.950Z,65.881518
2023-08-09T08:35:24.050Z,65.881518
2023-08-09T08:40:24.389Z,65.881518
2023-08-09T08:45:24.149Z,65.881518
2023-08-09T08:50:18.013Z,65.881518
2023-08-09T08:55:24.163Z,65.782557
2023-08-09T09:00:26.112Z,65.782557
2023-08-09T09:05:16.001Z,65.782557
2023-08-09T09:10:15.971Z,65.782557
2023-08-09T09:15:24.557Z,65.881518
2023-08-09T09:20:24.228Z,65.683596
2023-08-09T09:25:17.949Z,65.368736
2023-08-09T09:30:17.993Z,65.467562
2023-08-09T09:35:24.346Z,65.566387
2023-08-09T09:40:24.316Z,65.764038
2023-08-09T09:45:24.362Z,66.060512
2023-08-09T09:50:24.205Z,65.840343
2023-08-09T09:55:24.410Z,65.715332
2023-08-09T10:00:16.239Z,65.912430
2023-08-09T10:05:24.401Z,65.912430
2023-08-09T10:10:18.070Z,65.813881
2023-08-09T10:15:17.986Z,65.488171
2023-08-09T10:20:24.322Z,65.389760
2023-08-09T10:25:18.089Z,65.616782
2023-08-09T10:30:24.410Z,65.192939
2023-08-09T10:35:24.265Z,64.864394
2023-08-09T10:40:18.111Z,65.060935
2023-08-09T10:45:24.402Z,65.060935
2023-08-09T10:50:16.157Z,64.589207
2023-08-09T10:55:16.129Z,65.023169
2023-08-09T11:00:24.329Z,64.445576
2023-08-09T11:05:24.294Z,64.641254
2023-08-09T11:10:24.340Z,64.493190
2023-08-09T11:15:18.078Z,64.535978
2023-08-09T11:20:18.132Z,64.731061
2023-08-09T11:25:24.377Z,64.281660
2023-08-09T11:30:18.181Z,63.925978
2023-08-09T11:35:24.461Z,63.469290
2023-08-09T11:40:24.903Z,64.281660
2023-08-09T11:45:16.610Z,63.925978
2023-08-09T11:50:16.237Z,63.828735
2023-08-09T11:55:18.553Z,63.469290
2023-08-09T12:00:24.466Z,63.828735
2023-08-09T12:05:24.453Z,63.566380
2023-08-09T12:10:24.412Z,63.663470
2023-08-09T12:15:24.386Z,63.760560
2023-08-09T12:20:24.437Z,63.299711
2023-08-09T12:25:18.153Z,63.125405
2023-08-09T12:30:18.279Z,63.954737
2023-08-09T12:35:16.289Z,63.415740
2023-08-09T12:40:16.289Z,62.946261
2023-08-09T12:45:24.533Z,63.415740
2023-08-09T12:50:18.233Z,63.139501
2023-08-09T12:55:24.625Z,62.762161
2023-08-09T13:00:18.315Z,62.762161
2023-08-09T13:05:24.497Z,62.284088
2023-08-09T13:10:18.273Z,62.946261
2023-08-09T13:15:18.371Z,62.946261
2023-08-09T13:20:18.197Z,61.897932
2023-08-09T13:25:18.226Z,63.609294
2023-08-09T13:30:16.399Z,62.476689
2023-08-09T13:35:16.468Z,62.378615
2023-08-09T13:40:24.538Z,62.570883
2023-08-09T13:45:24.591Z,62.274883
2023-08-09T13:50:24.529Z,62.763148
2023-08-09T13:55:24.506Z,61.858616
2023-08-09T14:00:18.315Z,61.762985
2023-08-09T14:05:24.699Z,61.355551
2023-08-09T14:10:18.205Z,61.038197
2023-08-09T14:15:24.590Z,60.942909
2023-08-09T14:20:24.717Z,61.954245
2023-08-09T14:25:16.367Z,62.548541
2023-08-09T14:30:18.324Z,60.386225
2023-08-09T14:35:24.600Z,61.546470
2023-08-09T14:40:24.790Z,61.000473
2023-08-09T14:45:18.432Z,61.609905
2023-08-09T14:50:18.359Z,61.895745
2023-08-09T14:55:18.336Z,61.895745
2023-08-09T15:00:24.758Z,62.596461
2023-08-09T15:05:24.677Z,60.466689
2023-08-09T15:10:18.425Z,60.904033
2023-08-09T15:15:16.413Z,61.856415
2023-08-09T15:20:16.374Z,60.655814
2023-08-09T15:25:24.623Z,61.620287
2023-08-09T15:30:24.733Z,61.810127
2023-08-09T15:35:18.366Z,60.683947
2023-08-09T15:40:18.610Z,61.756695
2023-08-09T15:45:24.795Z,61.506823
2023-08-09T15:50:18.726Z,60.339705
2023-08-09T15:55:18.564Z,61.344523
2023-08-09T16:00:24.802Z,60.621668
2023-08-09T16:05:18.563Z,61.080680
2023-08-09T16:10:16.619Z,61.174854
2023-08-09T16:15:16.593Z,61.363200
2023-08-09T16:20:24.753Z,61.185562
2023-08-09T16:25:24.716Z,60.432265
2023-08-09T16:30:18.516Z,61.000112
2023-08-09T16:35:24.756Z,61.187675
2023-08-09T16:40:18.545Z,62.210696
2023-08-09T16:45:24.780Z,61.562787
2023-08-09T16:50:18.569Z,61.274520
2023-08-09T16:55:24.824Z,61.368097
2023-08-09T17:00:16.641Z,61.937879
2023-08-09T17:05:16.731Z,61.648822
2023-08-09T17:10:24.914Z,62.031649
2023-08-09T17:15:24.839Z,61.742394
2023-08-09T17:20:24.817Z,63.246394
2023-08-09T17:25:24.751Z,63.797600
2023-08-09T17:30:25.022Z,62.406716
2023-08-09T17:35:18.908Z,61.631954
2023-08-09T17:40:24.843Z,62.594242
2023-08-09T17:45:24.840Z,60.733104
2023-08-09T17:50:18.620Z,62.303801
2023-08-09T17:55:16.770Z,62.005417
2023-08-09T18:00:16.640Z,62.397364
2023-08-09T18:05:24.849Z,63.063035
2023-08-09T18:10:18.776Z,61.419357
2023-08-09T18:15:18.650Z,62.490926
2023-08-09T18:20:18.761Z,62.192141
2023-08-09T18:25:25.024Z,63.722542
2023-08-09T18:30:24.888Z,63.344295
2023-08-09T18:35:19.013Z,63.344295
2023-08-09T18:40:24.965Z,62.285501
2023-08-09T18:45:18.813Z,62.771604
2023-08-09T18:50:16.750Z,63.250543
2023-08-09T18:55:17.042Z,63.438046
2023-08-09T19:00:18.776Z,64.470217
2023-08-09T19:05:18.778Z,62.472217
2023-08-09T19:10:18.751Z,63.052270
2023-08-09T19:15:25.196Z,62.350924
2023-08-09T19:20:25.033Z,61.709207
2023-08-09T19:25:18.711Z,61.374920
2023-08-09T19:30:18.822Z,61.894669
2023-08-09T19:35:25.014Z,62.313266
2023-08-09T19:40:16.863Z,61.467439
2023-08-09T19:45:16.869Z,61.744987
2023-08-09T19:50:18.825Z,60.677950
2023-08-09T19:55:18.807Z,61.400476
2023-08-09T20:00:25.084Z,63.056732
2023-08-09T20:05:18.795Z,62.115029
2023-08-09T20:10:18.797Z,62.115029
2023-08-09T20:15:25.065Z,62.543744
2023-08-09T20:20:25.164Z,61.308178
2023-08-09T20:25:25.082Z,62.451023
2023-08-09T20:30:24.925Z,61.930011
2023-08-09T20:35:16.890Z,61.837499
2023-08-09T20:40:16.899Z,62.358301
2023-08-09T20:45:25.074Z,62.265578
2023-08-09T20:50:18.954Z,61.837499
2023-08-09T20:55:25.279Z,62.265578
2023-08-09T21:00:18.895Z,62.172853
2023-08-09T21:05:18.885Z,62.685010
2023-08-09T21:10:18.856Z,62.265578
2023-08-09T21:15:18.907Z,63.375491
2023-08-09T21:20:18.906Z,62.265578
2023-08-09T21:30:16.888Z,62.265578
2023-08-09T21:35:18.987Z,62.777943
2023-08-09T21:40:18.957Z,63.375491
2023-08-09T21:45:18.930Z,62.777943
2023-08-09T21:50:18.972Z,63.282356
2023-08-09T21:55:18.959Z,63.685739
2023-08-09T22:00:25.393Z,63.189219
2023-08-09T22:05:18.930Z,63.592399
2023-08-09T22:10:18.911Z,63.987741
2023-08-09T22:15:19.054Z,63.987741
2023-08-09T22:20:17.002Z,64.375487
2023-08-09T22:25:17.083Z,64.375487
2023-08-09T22:30:25.356Z,64.755872
2023-08-09T22:35:25.208Z,64.000526
2023-08-09T22:40:19.048Z,64.286195
2023-08-09T22:45:25.276Z,64.564349
2023-08-09T22:50:18.972Z,64.835208
2023-08-09T22:55:18.924Z,64.552238
2023-08-09T23:00:25.229Z,64.815446
2023-08-09T23:05:19.099Z,65.071776
2023-08-09T23:10:19.050Z,64.787678
2023-08-09T23:15:17.096Z,65.279366
2023-08-09T23:20:19.159Z,64.899102
2023-08-09T23:25:25.414Z,65.134661
2023-08-09T23:30:25.174Z,64.328677
2023-08-09T23:35:25.313Z,64.467918
2023-08-09T23:40:19.102Z,66.016998
2023-08-09T23:45:25.430Z,65.230479
2023-08-09T23:50:19.092Z,65.038934
2023-08-09T23:55:25.407Z,65.153546
